Etusivu
METAR-TAF:

METAR-TAF

Lentoasemat :

Kristiansund, Norja

Leveyspiiri: 63-07N, Pituuspiiri: 007-50E, korkeus merenpinnasta: 6 m

Tämänhetkinen sää

Tämä raportti tehtiin 43 minuuttia sitten, kello 20.50 UTC
Tuuli 11 kn pohjoisesta
Lämpötila 15°C
Kosteus 82%
Ilmanpaine 1014 hPa
Näkyvyys 10 km tai enemmän

METAR: ENKB 132050Z AUTO 01011KT 9999 NCD 15/12 Q1014 RMK WIND 745FT 03014KT

Aika: 23:33 (21:33 UTC)

Sääennuste

Tämä raportti tehtiin 7 tuntia ja 11 minuuttia sitten, kello 14.22 UTC
Ennuste voimassa 13. päivästä klo 14 UTC - 13. päivään klo 18 UTC
Tuuli 8 kn luoteesta
Näkyvyys 10 km tai enemmän
ei pilviä alle 1500 m:ssä eikä cumulonimbus-pilviä
Tulossa
13. päivästä klo 14 UTC - 13. päivään klo 16 UTC
Tuuli 12 kn pohjoisesta/koillisesta

TAF: ENKB 131422Z 1314/1318 31008KT CAVOK BECMG 1314/1316 02012KT

Säähavainnot ja -ennusteet yli 4000 lentoasemalta (METAR- ja TAF-raportit).

Käytössä olevat sääasemat on merkitty karttaan keltaisilla ja punaisilla pisteillä.

Aseta hiiri pisteen päälle nähdäksesi sääaseman nimen.

Klikkaa sitten nähdäksesi säähavainnot ja -ennusteet.

Kartan vaihtaminen: klikkaa mustalla rastilla varustettuja vihreitä pisteitä, niin voit zoomata sisään; viivalla varustettua vihreää pistettä, niin voit zoomata ulos tai vihreitä nuolia, niin pääset viereisille kartoille.


METAR-TAF: